Time;durP1;ratioP1;P1;durP2;ratioP2;P2;SDS_P1;SDS_P2;PMS_P1;PMS_P2;Temp;Humidity;BMP_temperature;BMP_pressure;BME280_temperature;BME280_humidity;BME280_pressure;Samples;Min_cycle;Max_cycle;Signal;HPM_P1;HPM_P2
2022/03/28 00:00:20;;;;;;;17.27;6.60;;;;;;;12.73;34.21;94787.13;4968241;28;20113;-74
2022/03/28 00:02:45;;;;;;;13.82;6.38;;;;;;;12.83;34.22;94821.59;4953290;28;20045;-71
2022/03/28 00:05:13;;;;;;;7.95;4.65;;;;;;;12.89;34.31;94819.59;4958766;28;20046;-74
2022/03/28 00:07:39;;;;;;;7.80;4.80;;;;;;;12.97;34.36;94815.41;4961210;28;20058;-74
2022/03/28 00:10:05;;;;;;;8.95;5.57;;;;;;;13.12;33.64;94823.06;4964141;28;20064;-72
2022/03/28 00:12:32;;;;;;;12.98;6.03;;;;;;;13.03;33.74;94803.53;4961508;28;20448;-72
2022/03/28 00:14:58;;;;;;;11.43;5.43;;;;;;;13.12;33.51;94793.69;4956407;28;20027;-74
2022/03/28 00:17:23;;;;;;;10.07;5.28;;;;;;;13.10;33.50;94791.34;4964695;28;21010;-72
2022/03/28 00:19:48;;;;;;;11.40;6.20;;;;;;;13.19;33.70;94807.41;4968860;28;20497;-73
2022/03/28 00:22:14;;;;;;;7.72;5.60;;;;;;;13.00;34.18;94796.13;4961985;28;20046;-73
2022/03/28 00:24:39;;;;;;;13.07;7.03;;;;;;;12.99;34.10;94786.53;4967509;28;20034;-74
2022/03/28 00:27:04;;;;;;;9.38;5.22;;;;;;;13.01;33.96;94785.13;4997028;28;20130;-71
2022/03/28 00:29:30;;;;;;;11.23;5.57;;;;;;;12.94;34.17;94782.13;4964489;28;20093;-72
2022/03/28 00:31:55;;;;;;;14.18;5.28;;;;;;;13.05;34.01;94802.13;4966511;28;20390;-73
2022/03/28 00:34:23;;;;;;;13.60;6.47;;;;;;;12.79;34.39;94799.28;4964174;28;20455;-75
2022/03/28 00:36:50;;;;;;;9.18;5.97;;;;;;;12.67;34.26;94793.69;4969189;28;20092;-74
2022/03/28 00:39:16;;;;;;;10.30;5.40;;;;;;;12.57;34.72;94791.19;4962944;28;20624;-72
2022/03/28 00:41:42;;;;;;;7.60;4.88;;;;;;;12.71;34.47;94810.66;4965451;28;20105;-72
2022/03/28 00:44:08;;;;;;;13.88;6.72;;;;;;;12.64;34.41;94801.50;4973121;28;20613;-74
2022/03/28 00:46:35;;;;;;;17.23;7.85;;;;;;;12.59;34.11;94810.41;4955716;28;20043;-73
2022/03/28 00:49:00;;;;;;;16.98;8.05;;;;;;;12.56;34.11;94800.31;4964946;28;20039;-72
2022/03/28 00:51:26;;;;;;;16.08;8.95;;;;;;;12.43;34.39;94791.25;4963744;28;20025;-74
2022/03/28 00:53:52;;;;;;;14.88;8.35;;;;;;;12.34;34.41;94797.59;4971566;28;20038;-73
2022/03/28 00:56:18;;;;;;;18.85;7.90;;;;;;;12.37;34.64;94799.69;4969074;28;20035;-73
2022/03/28 00:58:45;;;;;;;14.18;8.15;;;;;;;12.37;34.48;94799.69;4966223;28;20169;-73
2022/03/28 01:01:12;;;;;;;15.73;8.38;;;;;;;12.22;34.79;94774.13;4966714;28;20042;-75
2022/03/28 01:03:38;;;;;;;17.48;8.05;;;;;;;12.14;34.83;94790.81;4966403;28;20026;-73
2022/03/28 01:06:05;;;;;;;16.40;7.85;;;;;;;12.07;35.32;94800.31;4981021;28;20057;-74
2022/03/28 01:08:31;;;;;;;13.38;7.45;;;;;;;11.97;35.38;94793.31;4967196;28;20038;-74
2022/03/28 01:11:01;;;;;;;13.48;6.93;;;;;;;11.85;35.38;94774.34;4969018;28;20031;-72
2022/03/28 01:13:27;;;;;;;14.00;7.18;;;;;;;11.81;35.81;94758.19;4981365;28;20082;-74
2022/03/28 01:15:52;;;;;;;16.45;7.50;;;;;;;11.95;35.78;94785.59;4960633;28;20038;-73
2022/03/28 01:18:19;;;;;;;11.77;6.32;;;;;;;11.71;35.79;94752.25;4963340;28;20031;-71
2022/03/28 01:20:44;;;;;;;18.13;6.72;;;;;;;11.68;36.35;94790.16;4962634;28;20038;-74
2022/03/28 01:23:10;;;;;;;11.90;6.88;;;;;;;11.35;36.53;94757.44;4970045;28;20048;-72
2022/03/28 01:25:36;;;;;;;10.93;6.13;;;;;;;11.33;36.70;94779.06;4958430;28;20039;-73
2022/03/28 01:28:03;;;;;;;10.32;6.07;;;;;;;11.31;36.58;94791.84;4968146;28;20035;-75
2022/03/28 01:30:30;;;;;;;11.60;6.78;;;;;;;11.26;36.69;94777.84;4965424;28;20061;-74
2022/03/28 01:32:57;;;;;;;13.45;6.28;;;;;;;11.28;36.57;94771.16;4967870;28;20086;-72
2022/03/28 01:35:38;;;;;;;12.85;7.55;;;;;;;11.26;36.84;94780.50;4959320;28;20528;-75
2022/03/28 01:38:05;;;;;;;15.43;7.50;;;;;;;11.33;36.86;94789.72;4963180;28;20042;-74
2022/03/28 01:40:34;;;;;;;13.88;7.13;;;;;;;11.17;36.78;94775.06;4966085;28;20026;-75
2022/03/28 01:43:00;;;;;;;12.65;7.07;;;;;;;10.66;37.07;94716.59;4988934;28;20054;-75
2022/03/28 01:45:26;;;;;;;13.93;7.72;;;;;;;11.07;37.13;94770.72;4970778;28;20065;-74
2022/03/28 01:47:52;;;;;;;17.08;7.30;;;;;;;11.12;36.78;94788.47;4960427;28;20026;-74
2022/03/28 01:50:18;;;;;;;17.27;8.70;;;;;;;11.01;37.37;94777.19;4963559;28;20412;-72
2022/03/28 01:52:44;;;;;;;14.20;7.20;;;;;;;11.15;36.84;94778.00;4968000;28;20073;-74
2022/03/28 01:55:10;;;;;;;17.48;8.65;;;;;;;10.98;36.83;94777.78;4962081;28;20391;-71
2022/03/28 01:57:41;;;;;;;15.05;7.72;;;;;;;10.96;36.92;94785.25;4961341;28;20121;-72
2022/03/28 02:00:12;;;;;;;14.48;8.88;;;;;;;10.92;37.16;94773.63;4967091;28;20026;-76
2022/03/28 02:02:39;;;;;;;16.55;8.45;;;;;;;10.93;36.87;94782.41;4962138;28;20433;-75
2022/03/28 02:05:05;;;;;;;17.27;8.82;;;;;;;10.98;36.89;94783.13;4962114;28;20050;-75
2022/03/28 02:07:31;;;;;;;14.15;8.80;;;;;;;11.00;36.99;94780.94;4985062;28;20038;-73
2022/03/28 02:09:56;;;;;;;13.32;8.40;;;;;;;10.78;36.91;94762.16;4962501;28;20026;-72
2022/03/28 02:12:22;;;;;;;15.07;8.82;;;;;;;10.90;36.95;94785.66;4958589;28;20117;-74
2022/03/28 02:14:48;;;;;;;16.85;9.40;;;;;;;10.84;37.08;94786.81;4963185;28;20033;-72
2022/03/28 02:17:13;;;;;;;12.35;8.20;;;;;;;10.59;37.17;94756.88;4961391;28;20866;-74
2022/03/28 02:19:39;;;;;;;14.82;6.85;;;;;;;10.65;37.08;94782.31;4974140;28;20101;-72
2022/03/28 02:22:04;;;;;;;12.13;8.02;;;;;;;10.52;37.51;94785.69;4955759;28;20054;-71
2022/03/28 02:24:30;;;;;;;19.13;8.20;;;;;;;10.31;37.69;94755.94;4963351;28;20030;-74
2022/03/28 02:26:56;;;;;;;16.95;8.30;;;;;;;10.46;37.77;94770.91;4963047;28;20034;-75
2022/03/28 02:29:22;;;;;;;16.65;8.32;;;;;;;10.50;37.54;94779.88;4968551;28;20039;-72
2022/03/28 02:31:48;;;;;;;15.85;7.78;;;;;;;10.66;37.39;94783.13;4960310;28;20101;-71
2022/03/28 02:34:13;;;;;;;12.82;9.25;;;;;;;10.57;37.33;94772.31;4959061;28;21176;-72
2022/03/28 02:36:39;;;;;;;13.68;8.60;;;;;;;10.46;37.63;94754.16;4967793;28;20028;-73
2022/03/28 02:39:05;;;;;;;17.25;9.43;;;;;;;10.53;37.70;94775.84;4962809;28;20118;-74
2022/03/28 02:41:30;;;;;;;18.98;8.82;;;;;;;10.48;37.93;94778.56;4964270;28;20137;-73
2022/03/28 02:43:56;;;;;;;15.73;8.38;;;;;;;8.88;37.48;94536.84;4966348;28;20383;-72
2022/03/28 02:46:21;;;;;;;17.15;8.98;;;;;;;10.24;37.96;94760.00;4965311;28;20081;-71
2022/03/28 02:48:47;;;;;;;13.80;8.82;;;;;;;10.34;38.01;94783.81;4962843;28;21107;-75
2022/03/28 02:51:13;;;;;;;14.73;8.50;;;;;;;10.34;37.64;94757.22;4980642;28;20386;-73
2022/03/28 02:53:38;;;;;;;19.10;9.10;;;;;;;10.24;37.96;94755.50;4973230;28;20121;-71
2022/03/28 02:56:04;;;;;;;17.38;10.52;;;;;;;9.98;38.02;94732.97;4958469;28;20146;-74
2022/03/28 02:58:29;;;;;;;15.15;9.00;;;;;;;10.30;37.99;94788.13;4968858;28;20096;-74
2022/03/28 03:00:54;;;;;;;15.25;9.20;;;;;;;10.30;38.16;94799.56;4965620;28;20038;-72
2022/03/28 03:03:20;;;;;;;15.27;8.57;;;;;;;10.26;38.27;94792.44;4963146;28;20026;-72
2022/03/28 03:05:46;;;;;;;15.32;8.40;;;;;;;10.16;38.39;94782.72;4964567;28;20941;-71
2022/03/28 03:08:12;;;;;;;16.13;9.02;;;;;;;10.24;38.63;94802.56;4966868;28;20046;-74
2022/03/28 03:10:37;;;;;;;18.17;7.82;;;;;;;10.10;38.44;94789.19;4955083;28;20034;-72
2022/03/28 03:13:03;;;;;;;18.38;8.63;;;;;;;10.10;38.81;94799.81;4969161;28;20069;-73
2022/03/28 03:15:28;;;;;;;14.95;9.13;;;;;;;9.99;38.75;94782.41;4961226;28;20093;-72
2022/03/28 03:17:54;;;;;;;13.05;7.40;;;;;;;10.00;38.88;94810.56;4969846;28;20455;-73
2022/03/28 03:20:19;;;;;;;15.25;8.50;;;;;;;9.82;39.02;94793.53;4957949;28;20103;-72
2022/03/28 03:22:44;;;;;;;16.95;8.35;;;;;;;9.78;38.87;94786.41;4971916;28;20034;-71
2022/03/28 03:25:17;;;;;;;16.05;8.30;;;;;;;9.78;38.78;94791.72;4965173;28;20555;-75
2022/03/28 03:27:43;;;;;;;16.70;8.73;;;;;;;9.70;38.80;94781.72;4982041;28;20041;-73
2022/03/28 03:30:10;;;;;;;18.65;9.27;;;;;;;9.86;38.82;94818.44;4969565;28;20022;-74
2022/03/28 03:32:36;;;;;;;16.92;9.27;;;;;;;9.68;39.07;94816.50;4964516;28;20035;-71
2022/03/28 03:35:03;;;;;;;16.35;8.95;;;;;;;9.48;39.32;94786.75;4965773;28;20064;-74
2022/03/28 03:37:29;;;;;;;16.95;9.27;;;;;;;9.57;39.66;94812.41;4979715;28;20053;-74
2022/03/28 03:39:54;;;;;;;13.98;8.15;;;;;;;9.50;39.51;94796.00;4967558;28;20046;-72
2022/03/28 03:42:20;;;;;;;14.73;8.68;;;;;;;9.45;39.67;94794.19;4963745;28;20326;-73
2022/03/28 03:44:45;;;;;;;21.83;8.75;;;;;;;9.49;39.77;94806.94;4966798;28;20050;-71
2022/03/28 03:47:11;;;;;;;28.33;11.70;;;;;;;9.04;40.80;94808.91;4956507;28;20053;-73
2022/03/28 03:49:40;;;;;;;21.85;9.57;;;;;;;9.03;40.69;94802.00;4963523;28;20038;-74
2022/03/28 03:52:05;;;;;;;12.43;6.70;;;;;;;8.76;40.73;94769.88;4961773;28;20604;-72
2022/03/28 03:54:31;;;;;;;11.38;6.43;;;;;;;8.93;40.66;94789.63;4963461;28;20294;-73
2022/03/28 03:56:57;;;;;;;14.40;8.02;;;;;;;8.88;41.03;94810.09;4962147;28;20106;-71
2022/03/28 03:59:22;;;;;;;18.35;6.75;;;;;;;8.69;41.02;94793.28;4961806;28;20632;-73
2022/03/28 04:01:48;;;;;;;12.00;7.30;;;;;;;8.54;41.35;94794.19;4959816;28;20042;-74
2022/03/28 04:04:14;;;;;;;16.95;7.60;;;;;;;8.80;41.22;94819.47;4979449;28;20039;-72
2022/03/28 04:06:39;;;;;;;11.68;6.80;;;;;;;8.56;41.06;94786.72;4955630;28;20053;-72
2022/03/28 04:09:05;;;;;;;15.48;7.43;;;;;;;8.76;41.45;94828.22;4959043;28;20065;-73
2022/03/28 04:11:31;;;;;;;13.02;7.22;;;;;;;7.84;41.01;94674.31;4962292;28;20084;-72
2022/03/28 04:13:57;;;;;;;14.48;7.68;;;;;;;8.80;41.45;94824.75;4953756;28;20540;-71
2022/03/28 04:16:23;;;;;;;12.05;7.68;;;;;;;8.79;41.22;94819.72;4964782;28;20046;-72
2022/03/28 04:18:49;;;;;;;12.23;7.22;;;;;;;8.81;41.48;94820.22;4965497;28;20077;-73
2022/03/28 04:21:15;;;;;;;11.93;7.20;;;;;;;8.93;41.15;94831.28;4967592;28;20117;-72
2022/03/28 04:23:40;;;;;;;13.95;7.35;;;;;;;8.98;40.99;94833.91;4958107;28;20072;-75
2022/03/28 04:26:05;;;;;;;15.77;7.60;;;;;;;8.88;40.88;94805.59;4963949;28;20034;-72
2022/03/28 04:28:31;;;;;;;12.20;6.47;;;;;;;9.00;41.15;94821.91;4967588;28;20038;-74
2022/03/28 04:30:56;;;;;;;14.32;6.93;;;;;;;9.04;41.19;94835.44;4963281;28;20069;-72
2022/03/28 04:33:22;;;;;;;12.88;6.88;;;;;;;8.95;41.10;94821.19;4968273;28;20588;-71
2022/03/28 04:35:47;;;;;;;13.85;6.28;;;;;;;8.96;41.08;94806.84;4958110;28;20124;-71
2022/03/28 04:38:13;;;;;;;9.55;6.10;;;;;;;9.05;40.97;94805.16;4969891;28;20038;-73
2022/03/28 04:40:38;;;;;;;9.80;6.00;;;;;;;9.31;40.74;94829.66;4957705;28;20037;-73
2022/03/28 04:43:04;;;;;;;11.90;6.93;;;;;;;9.20;40.44;94802.41;4970607;28;20027;-71
2022/03/28 04:45:32;;;;;;;13.70;6.82;;;;;;;9.42;40.55;94821.31;4966412;28;20089;-74
2022/03/28 04:48:02;;;;;;;8.93;5.15;;;;;;;9.26;40.40;94811.91;4982052;28;20092;-73
2022/03/28 04:50:28;;;;;;;7.40;4.80;;;;;;;9.31;40.79;94801.25;4985421;28;20203;-72
2022/03/28 04:52:54;;;;;;;9.73;5.10;;;;;;;9.50;40.64;94811.94;4964394;28;20055;-74
2022/03/28 04:55:20;;;;;;;7.40;4.45;;;;;;;9.55;40.59;94801.25;4972430;28;20133;-73
2022/03/28 04:57:45;;;;;;;6.30;3.63;;;;;;;9.76;40.54;94805.28;4960510;28;20998;-71
2022/03/28 05:00:12;;;;;;;6.97;4.20;;;;;;;9.92;40.24;94808.56;4960576;28;20049;-72
2022/03/28 05:02:38;;;;;;;7.45;4.78;;;;;;;10.01;40.29;94806.84;4961324;28;20135;-75
2022/03/28 05:05:05;;;;;;;8.32;4.75;;;;;;;9.95;40.13;94792.03;4967145;28;20034;-74
2022/03/28 05:07:31;;;;;;;13.57;5.50;;;;;;;10.06;39.75;94782.88;4968112;28;20042;-71
2022/03/28 05:10:01;;;;;;;10.73;4.45;;;;;;;10.41;39.29;94807.41;4964290;28;20034;-71
2022/03/28 05:12:26;;;;;;;10.98;5.32;;;;;;;9.26;41.93;94800.50;5000241;28;20034;-72
2022/03/28 05:14:53;;;;;;;27.15;10.45;;;;;;;8.43;43.15;94803.25;4964573;28;20385;-72
2022/03/28 05:17:37;;;;;;;14.25;10.10;;;;;;;9.26;41.93;94811.91;4964565;28;20077;-74
2022/03/28 05:20:09;;;;;;;17.67;11.07;;;;;;;8.97;41.91;94827.00;4971410;28;20039;-75
2022/03/28 05:22:35;;;;;;;27.08;12.25;;;;;;;9.01;41.85;94825.38;4963650;28;20080;-72
2022/03/28 05:25:02;;;;;;;19.90;11.98;;;;;;;9.43;41.13;94816.81;4972881;28;20149;-72
2022/03/28 05:27:28;;;;;;;20.23;11.15;;;;;;;9.69;40.43;94819.97;4961686;28;20157;-74
2022/03/28 05:29:53;;;;;;;20.25;11.55;;;;;;;9.47;40.65;94758.59;4968176;28;20525;-72
2022/03/28 05:32:19;;;;;;;20.42;12.75;;;;;;;9.27;41.21;94837.38;4957346;28;20968;-72
2022/03/28 05:34:44;;;;;;;30.38;13.52;;;;;;;9.37;40.97;94818.72;4966825;28;20074;-72
2022/03/28 05:37:12;;;;;;;27.02;14.40;;;;;;;9.91;39.97;94817.59;4978835;28;20332;-75
2022/03/28 05:39:39;;;;;;;26.48;13.93;;;;;;;9.62;40.61;94835.47;4963076;28;20034;-72
2022/03/28 05:42:05;;;;;;;25.83;13.48;;;;;;;9.76;40.82;94831.06;4966161;28;20485;-73
2022/03/28 05:44:30;;;;;;;25.42;13.35;;;;;;;10.16;39.52;94835.91;4961705;28;20049;-70
2022/03/28 05:46:56;;;;;;;31.15;14.23;;;;;;;10.08;39.73;94833.06;4980327;28;20035;-72
2022/03/28 05:49:25;;;;;;;27.90;13.80;;;;;;;9.00;41.97;94829.09;4964706;28;20069;-73
2022/03/28 05:51:52;;;;;;;30.92;14.20;;;;;;;8.88;42.48;94841.94;4965583;28;20061;-73
2022/03/28 05:54:19;;;;;;;29.27;13.48;;;;;;;8.45;41.54;94693.25;4945860;28;20572;-71
2022/03/28 05:56:44;;;;;;;25.25;14.23;;;;;;;9.62;41.35;94830.16;4968376;28;20033;-74
2022/03/28 05:59:14;;;;;;;21.98;11.88;;;;;;;10.03;40.64;94841.09;4963679;28;20035;-75
2022/03/28 06:01:41;;;;;;;24.40;10.95;;;;;;;10.17;39.92;94816.19;4965773;28;20497;-73
2022/03/28 06:04:07;;;;;;;21.17;12.63;;;;;;;9.00;42.16;94823.78;4966189;28;20045;-73
2022/03/28 06:06:33;;;;;;;26.88;13.23;;;;;;;9.07;42.77;94842.03;4965629;28;20030;-73
2022/03/28 06:08:59;;;;;;;27.05;14.50;;;;;;;9.79;41.02;94830.47;4961183;28;20057;-72
2022/03/28 06:11:24;;;;;;;23.48;15.20;;;;;;;9.98;40.16;94833.19;4970902;28;20070;-72
2022/03/28 06:13:50;;;;;;;27.05;12.57;;;;;;;9.81;40.48;94839.75;4964572;28;20572;-74
2022/03/28 06:16:16;;;;;;;24.77;13.52;;;;;;;10.22;39.83;94824.09;4966784;28;20047;-71
2022/03/28 06:18:41;;;;;;;21.30;13.07;;;;;;;10.33;39.79;94840.72;4959749;28;20060;-71
2022/03/28 06:21:07;;;;;;;18.77;12.95;;;;;;;10.52;39.37;94835.44;4966197;28;20031;-73
2022/03/28 06:23:39;;;;;;;22.27;12.27;;;;;;;10.75;38.95;94837.25;4962992;28;20105;-74
2022/03/28 06:26:05;;;;;;;24.33;14.23;;;;;;;10.73;38.36;94823.44;4963096;28;20486;-71
2022/03/28 06:28:31;;;;;;;26.98;13.55;;;;;;;10.95;38.12;94847.59;4964616;28;20038;-74
2022/03/28 06:30:57;;;;;;;29.50;12.77;;;;;;;10.67;38.23;94788.13;4967627;28;20046;-74
2022/03/28 06:33:23;;;;;;;24.73;12.02;;;;;;;10.90;38.26;94844.22;4963228;28;20050;-74
2022/03/28 06:35:48;;;;;;;20.35;11.70;;;;;;;10.51;39.28;94841.84;4959706;28;20030;-74
2022/03/28 06:38:14;;;;;;;28.80;13.32;;;;;;;10.60;38.67;94840.13;4961384;28;20046;-71
2022/03/28 06:40:39;;;;;;;26.10;13.38;;;;;;;10.81;38.49;94828.09;4963150;28;20038;-73
2022/03/28 06:43:05;;;;;;;31.73;14.65;;;;;;;10.57;39.14;94830.03;4961236;28;20174;-71
2022/03/28 06:45:32;;;;;;;25.92;14.25;;;;;;;9.91;40.28;94828.22;4967893;28;20041;-75
2022/03/28 06:47:57;;;;;;;29.48;14.45;;;;;;;9.86;40.84;94838.91;4978738;28;20029;-72
2022/03/28 06:50:25;;;;;;;26.65;15.02;;;;;;;9.64;40.96;94865.16;4959692;28;20291;-72
2022/03/28 06:52:52;;;;;;;25.05;13.75;;;;;;;9.27;41.49;94855.97;4960223;28;20468;-72
2022/03/28 06:55:18;;;;;;;30.45;13.15;;;;;;;9.58;41.58;94845.88;4968003;28;20418;-74
2022/03/28 06:57:44;;;;;;;25.50;13.10;;;;;;;9.71;41.49;94841.75;4962278;28;20041;-74
2022/03/28 07:00:10;;;;;;;25.42;13.85;;;;;;;10.05;40.56;94845.06;4961598;28;20018;-73
2022/03/28 07:02:39;;;;;;;24.17;14.68;;;;;;;9.66;41.07;94841.78;4962690;28;20042;-74
2022/03/28 07:05:06;;;;;;;31.83;14.52;;;;;;;9.57;41.81;94840.81;4960460;28;20128;-72
2022/03/28 07:07:57;;;;;;;28.48;14.57;;;;;;;9.96;41.62;94852.09;4960340;28;20449;-71
2022/03/28 07:10:23;;;;;;;23.02;11.98;;;;;;;10.05;40.69;94836.28;4992237;28;20316;-75
2022/03/28 07:12:51;;;;;;;18.90;10.50;;;;;;;10.67;40.62;94859.16;4962786;28;20066;-75
2022/03/28 07:15:16;;;;;;;25.08;11.63;;;;;;;11.13;39.83;94840.66;4964748;28;20029;-75
2022/03/28 07:17:52;;;;;;;20.13;10.85;;;;;;;11.36;38.89;94847.69;4964352;28;20102;-74
2022/03/28 07:20:26;;;;;;;25.90;10.27;;;;;;;11.74;38.14;94848.38;4959720;28;20576;-75
2022/03/28 07:22:52;;;;;;;19.27;9.38;;;;;;;11.30;39.37;94851.53;4981788;28;20489;-74
2022/03/28 07:25:19;;;;;;;15.10;9.90;;;;;;;11.86;38.02;94838.03;4963661;28;20198;-75
2022/03/28 07:27:45;;;;;;;20.92;10.95;;;;;;;11.77;38.07;94849.69;4980075;28;20042;-75
2022/03/28 07:30:22;;;;;;;22.17;10.07;;;;;;;11.55;38.17;94826.34;4966400;28;20033;-75
2022/03/28 07:32:51;;;;;;;18.63;9.50;;;;;;;11.65;38.53;94828.84;4960657;28;20118;-75
2022/03/28 07:35:17;;;;;;;19.52;9.38;;;;;;;11.30;39.38;94850.72;4961704;28;20038;-75
2022/03/28 07:37:43;;;;;;;18.88;9.55;;;;;;;11.41;39.27;94844.16;4954697;28;20035;-76
2022/03/28 07:40:10;;;;;;;17.23;8.43;;;;;;;10.64;39.82;94820.63;4965694;28;20413;-75
2022/03/28 07:42:37;;;;;;;16.40;9.05;;;;;;;10.97;39.72;94845.41;4957626;28;20038;-74
2022/03/28 07:45:05;;;;;;;15.40;8.43;;;;;;;11.31;39.76;94844.34;4966339;28;20018;-75
2022/03/28 07:47:31;;;;;;;18.13;9.60;;;;;;;11.49;39.62;94843.50;4949526;28;20045;-75
2022/03/28 07:49:59;;;;;;;16.30;9.00;;;;;;;11.32;39.63;94851.25;4964491;28;20451;-75
2022/03/28 07:52:26;;;;;;;22.23;9.30;;;;;;;11.49;39.46;94830.94;4953717;28;20094;-73
2022/03/28 07:54:52;;;;;;;18.35;9.52;;;;;;;11.07;39.71;94815.97;4966756;28;20478;-76
2022/03/28 07:57:18;;;;;;;13.30;8.23;;;;;;;11.17;39.66;94807.03;4962611;28;20034;-76
2022/03/28 07:59:48;;;;;;;16.13;8.73;;;;;;;11.31;39.66;94837.13;4962124;28;20046;-75
2022/03/28 08:02:15;;;;;;;21.27;11.38;;;;;;;11.40;39.80;94842.56;4964586;28;20437;-75
2022/03/28 08:04:43;;;;;;;15.00;9.07;;;;;;;11.39;39.08;94835.69;4959656;28;20865;-74
2022/03/28 08:07:10;;;;;;;15.10;7.47;;;;;;;11.32;39.11;94822.75;4961882;28;20042;-75
2022/03/28 08:09:36;;;;;;;16.60;8.45;;;;;;;11.29;39.64;94826.00;4959510;28;20136;-76
2022/03/28 08:12:02;;;;;;;16.38;9.57;;;;;;;10.99;39.87;94806.00;4957636;28;20456;-75
2022/03/28 08:14:28;;;;;;;16.35;8.55;;;;;;;11.59;38.83;94803.38;4970172;28;20409;-75
2022/03/28 08:16:56;;;;;;;17.75;8.95;;;;;;;11.67;38.79;94816.03;4959707;28;20034;-73
2022/03/28 08:19:22;;;;;;;17.20;8.65;;;;;;;11.51;39.34;94817.38;4969043;28;20045;-74
2022/03/28 08:21:56;;;;;;;13.77;7.72;;;;;;;11.69;39.29;94811.16;4957315;28;20039;-73
2022/03/28 08:24:21;;;;;;;24.27;10.23;;;;;;;11.73;38.98;94806.84;4964643;28;20039;-75
2022/03/28 08:26:49;;;;;;;15.18;9.40;;;;;;;11.21;38.84;94794.69;4965377;28;20077;-75
2022/03/28 08:29:15;;;;;;;19.00;9.43;;;;;;;11.51;39.49;94818.16;4963961;28;20055;-75
2022/03/28 08:31:41;;;;;;;17.20;10.18;;;;;;;11.81;38.23;94808.81;4962936;28;20521;-74
2022/03/28 08:34:07;;;;;;;17.85;9.20;;;;;;;12.03;38.45;94798.22;4956279;28;20122;-75
2022/03/28 08:36:33;;;;;;;15.38;8.73;;;;;;;12.19;37.61;94741.91;4962920;28;20720;-74
2022/03/28 08:38:58;;;;;;;15.10;9.35;;;;;;;12.04;38.23;94773.16;4959289;28;20113;-74
2022/03/28 08:41:26;;;;;;;17.42;9.40;;;;;;;11.89;38.57;94789.44;4964886;28;20038;-75
2022/03/28 08:43:56;;;;;;;16.52;9.25;;;;;;;12.01;37.85;94792.44;4960202;28;20038;-73
2022/03/28 08:46:21;;;;;;;16.05;10.07;;;;;;;11.71;38.34;94776.25;4975314;28;20046;-75
2022/03/28 08:48:48;;;;;;;21.25;10.50;;;;;;;12.09;37.97;94766.13;4960793;28;20453;-74
2022/03/28 08:51:16;;;;;;;21.15;8.30;;;;;;;12.21;37.60;94785.09;4959481;28;20046;-75
2022/03/28 08:53:43;;;;;;;14.82;9.05;;;;;;;11.98;37.56;94758.34;4965815;28;20034;-75
2022/03/28 08:56:08;;;;;;;17.63;9.93;;;;;;;11.81;38.11;94747.50;4954225;28;20768;-74
2022/03/28 08:58:35;;;;;;;19.23;8.98;;;;;;;11.84;38.04;94740.78;4957637;28;20356;-74
2022/03/28 09:01:05;;;;;;;14.57;9.70;;;;;;;12.06;38.06;94769.41;4957993;28;20096;-76
2022/03/28 09:03:44;;;;;;;18.83;9.95;;;;;;;12.39;37.44;94771.59;4963383;28;20033;-74
2022/03/28 09:06:28;;;;;;;16.10;9.63;;;;;;;12.08;37.88;94765.34;4956541;28;20121;-76
2022/03/28 09:08:53;;;;;;;13.43;7.93;;;;;;;11.91;37.94;94747.31;4965035;28;20046;-75
2022/03/28 09:11:20;;;;;;;15.50;9.43;;;;;;;12.60;37.34;94761.28;4972102;28;20520;-75
2022/03/28 09:13:46;;;;;;;17.77;10.10;;;;;;;12.31;37.46;94745.66;4960797;28;20062;-75
2022/03/28 09:16:18;;;;;;;15.32;8.38;;;;;;;12.52;37.34;94735.28;4970031;28;20125;-73
2022/03/28 09:18:43;;;;;;;13.55;8.40;;;;;;;12.60;37.67;94747.94;4991572;28;20031;-75
2022/03/28 09:21:16;;;;;;;12.50;8.15;;;;;;;12.64;37.45;94738.25;4962558;28;20038;-75
2022/03/28 09:23:49;;;;;;;18.05;9.30;;;;;;;12.44;37.45;94744.00;4960102;28;20030;-74
2022/03/28 09:26:20;;;;;;;16.77;9.32;;;;;;;12.53;37.74;94731.53;4963021;28;20208;-75
2022/03/28 09:28:56;;;;;;;17.02;8.98;;;;;;;13.10;36.71;94729.13;4963971;28;20043;-75
2022/03/28 09:31:26;;;;;;;15.45;9.27;;;;;;;12.71;37.07;94717.25;4973013;28;20461;-75
2022/03/28 09:33:59;;;;;;;19.17;9.00;;;;;;;12.65;37.09;94729.16;4960016;28;20038;-75
2022/03/28 09:36:50;;;;;;;17.63;9.32;;;;;;;12.95;36.78;94729.50;4982372;28;20444;-74
2022/03/28 09:39:22;;;;;;;15.63;9.10;;;;;;;13.31;35.92;94703.44;4957214;28;20019;-75
2022/03/28 09:41:58;;;;;;;20.95;10.10;;;;;;;13.69;35.40;94715.22;4964082;28;20053;-75
2022/03/28 09:44:40;;;;;;;15.43;9.93;;;;;;;13.42;35.65;94710.09;4962313;28;20101;-74
2022/03/28 09:47:12;;;;;;;14.00;8.90;;;;;;;13.01;36.19;94702.34;4997628;28;20058;-75
2022/03/28 09:49:41;;;;;;;17.25;8.05;;;;;;;13.41;36.48;94697.03;4963427;28;20446;-75
2022/03/28 09:52:11;;;;;;;23.45;11.07;;;;;;;13.27;36.04;94691.78;4964778;28;20505;-76
2022/03/28 09:54:51;;;;;;;16.50;10.02;;;;;;;13.01;36.25;94683.66;4957999;28;20130;-74
2022/03/28 09:57:22;;;;;;;16.38;8.55;;;;;;;13.22;36.09;94689.25;4963589;28;20030;-75
2022/03/28 09:59:48;;;;;;;17.08;9.02;;;;;;;13.67;35.57;94671.19;4958443;28;20058;-75
2022/03/28 10:02:22;;;;;;;18.33;9.38;;;;;;;13.92;35.67;94653.63;4965076;28;20038;-75
2022/03/28 10:04:51;;;;;;;18.52;10.38;;;;;;;14.05;35.16;94679.44;4963880;28;20064;-74
2022/03/28 10:07:18;;;;;;;14.23;8.73;;;;;;;13.89;34.99;94673.75;4965806;28;20046;-75
2022/03/28 10:09:43;;;;;;;14.18;9.63;;;;;;;13.90;34.86;94634.44;4962999;28;20463;-75
2022/03/28 10:12:09;;;;;;;15.88;7.68;;;;;;;14.00;34.67;94620.75;4967930;28;20142;-76
2022/03/28 10:14:36;;;;;;;15.20;8.95;;;;;;;13.57;35.08;94642.84;4982031;28;20035;-74
2022/03/28 10:17:03;;;;;;;16.65;8.60;;;;;;;13.71;35.11;94653.44;4960863;28;20034;-75
2022/03/28 10:19:32;;;;;;;14.75;8.07;;;;;;;13.69;35.46;94659.09;4971888;28;20046;-75
2022/03/28 10:22:03;;;;;;;16.63;9.18;;;;;;;13.73;34.76;94629.88;4956287;28;20108;-74
2022/03/28 10:24:33;;;;;;;16.52;9.68;;;;;;;13.06;35.27;94563.34;4999238;28;20364;-75
2022/03/28 10:27:00;;;;;;;17.48;8.07;;;;;;;13.89;35.14;94630.16;4962997;28;20515;-76
2022/03/28 10:29:38;;;;;;;17.33;8.63;;;;;;;14.50;34.07;94626.38;4968234;28;20047;-74
2022/03/28 10:32:08;;;;;;;20.98;9.35;;;;;;;14.68;34.23;94617.22;4956693;28;20048;-75
2022/03/28 10:34:53;;;;;;;24.10;9.82;;;;;;;14.15;34.41;94617.59;4982824;28;20050;-75
2022/03/28 10:37:26;;;;;;;20.05;9.68;;;;;;;14.07;34.54;94591.66;4954767;28;20043;-75
2022/03/28 10:40:12;;;;;;;18.88;10.18;;;;;;;13.99;34.50;94600.44;4966629;28;20098;-76
2022/03/28 10:42:58;;;;;;;27.88;10.48;;;;;;;14.26;34.71;94604.69;4963248;28;20041;-74
2022/03/28 10:45:53;;;;;;;21.10;8.93;;;;;;;14.69;33.99;94602.75;4960516;28;20695;-74
2022/03/28 10:48:39;;;;;;;16.23;10.35;;;;;;;14.52;34.07;94589.38;4969033;28;20477;-76
2022/03/28 10:51:18;;;;;;;15.57;9.65;;;;;;;14.30;34.12;94573.53;4953830;28;20485;-75
2022/03/28 10:53:52;;;;;;;20.80;9.88;;;;;;;14.85;33.65;94568.22;4967724;28;20041;-75
2022/03/28 10:56:43;;;;;;;19.23;10.10;;;;;;;14.65;33.22;94584.97;4958491;28;20080;-75
2022/03/28 10:59:20;;;;;;;17.65;9.90;;;;;;;14.62;33.83;94575.66;4979932;28;20234;-73
2022/03/28 11:01:49;;;;;;;21.55;11.52;;;;;;;14.45;33.58;94554.28;4978560;28;20104;-74
2022/03/28 11:04:22;;;;;;;20.95;11.23;;;;;;;14.45;33.88;94573.81;4967111;28;20066;-76
2022/03/28 11:07:03;;;;;;;17.88;10.07;;;;;;;14.48;33.77;94570.47;4992494;28;20050;-75
2022/03/28 11:09:41;;;;;;;20.83;11.93;;;;;;;15.00;33.87;94562.31;4961442;28;20128;-75
2022/03/28 11:12:10;;;;;;;25.70;12.65;;;;;;;14.92;32.90;94571.16;4962322;28;21054;-75
2022/03/28 11:14:49;;;;;;;23.08;12.13;;;;;;;14.73;32.94;94560.03;4984912;28;20053;-73
2022/03/28 11:17:28;;;;;;;20.33;10.18;;;;;;;14.67;33.27;94553.31;4958390;28;20986;-75
2022/03/28 11:19:57;;;;;;;20.95;10.15;;;;;;;15.26;33.25;94560.25;4985736;28;20046;-75
2022/03/28 11:22:44;;;;;;;14.77;9.32;;;;;;;15.27;32.16;94558.38;4963939;28;20042;-76
2022/03/28 11:25:32;;;;;;;18.08;8.90;;;;;;;15.22;33.38;94545.94;4964397;28;20042;-76
2022/03/28 11:28:05;;;;;;;14.77;7.72;;;;;;;15.70;32.31;94544.72;4956940;28;20233;-76
2022/03/28 11:30:31;;;;;;;19.00;8.52;;;;;;;15.81;31.63;94540.53;4961566;28;20046;-74